Wye Mills, MD (21679)

2:15 PM EST on December 03, 2016 (GMT -0500)
Governor Grason II/III | | Change Station

Elev 13 ft 38.95 °N, 76.17 °W | Updated 32 seconds ago

Clear
Clear
50.5 °F
Feels Like 50.5 °F
N
14.3
Wind Variable Wind from WNW
Gusts 17.5 mph

Today
High -- | Low -- °F
--% Chance of Precip.
Yesterday
High -- | Low -- °F
Precip. -- in
Pressure 30.17 in
Visibility 10.0 miles
Clouds Clear
Dew Point 12 °F
Humidity 21%
Rainfall 0.00 in
Snow Depth Not available.
7:06 AM 4:42 PM
Waxing Crescent, 16% visible
METAR KESN 031850Z 32016G22KT 10SM SKC 11/M02 A3017
Pressure 30.17 in
Visibility 10.0 miles
Clouds Clear
Dew Point 12 °F
Humidity 21%
Rainfall 0.00 in
Snow Depth Not available.
7:06 AM 4:42 PM
Waxing Crescent, 16% visible
METAR KESN 031850Z 32016G22KT 10SM SKC 11/M02 A3017

10-Day Weather Forecast

Almanac

Astronomy

Dec. 03, 2016 Rise Set
Actual Time
Civil Twilight
Nautical Twilight
Astronomical Twilight
Moon
Length of Visible Light
Length of Day
Tomorrow will be .
, % of the Moon is Illuminated

Today's Extremes

State Highs State Lows

Community

WunderPhotos

Upload Photos

1,955,472 photos uploaded!

WunderBlog® & News

Nearby

Air Quality

  Air Quality AQ Index Pollutant
Not available.

Snow Depth

Station Depth Elevation

Earthquake Activity

City Distance Mag. Time & Date
Minimum magnitude displayed is 2.5.

Coastal Water Temperatures

Place Temperature

Stations

Nearby Weather Stations

Station Location Temp. Windchill Dew Point Humidity Wind Precip. Elev Updated Type
                   

Watches & Warnings

There are currently no watches in effect.